createdAt,value
2019-02-22T00:02:28.390Z,2.20
2019-02-22T00:04:57.655Z,1.73
2019-02-22T00:07:27.234Z,1.70
2019-02-22T00:09:56.969Z,1.90
2019-02-22T00:12:26.474Z,1.80
2019-02-22T00:14:56.153Z,2.40
2019-02-22T00:17:27.032Z,2.00
2019-02-22T00:19:57.719Z,1.67
2019-02-22T00:22:26.914Z,1.70
2019-02-22T00:24:57.565Z,1.60
2019-02-22T00:27:27.234Z,1.37
2019-02-22T00:29:56.533Z,1.30
2019-02-22T00:32:25.650Z,1.33
2019-02-22T00:34:54.846Z,1.33
2019-02-22T00:37:24.433Z,1.50
2019-02-22T00:39:54.097Z,1.67
2019-02-22T00:42:23.858Z,1.53
2019-02-22T00:44:53.525Z,1.30
2019-02-22T00:47:22.766Z,1.67
2019-02-22T00:49:52.426Z,1.50
2019-02-22T00:52:22.186Z,1.50
2019-02-22T00:54:51.393Z,4.10
2019-02-22T00:57:20.990Z,1.50
2019-02-22T00:59:50.222Z,1.40
2019-02-22T01:02:19.740Z,1.00
2019-02-22T01:04:49.021Z,1.20
2019-02-22T01:07:18.156Z,1.03
2019-02-22T01:09:47.312Z,1.30
2019-02-22T01:12:16.844Z,1.07
2019-02-22T01:14:46.091Z,1.10
2019-02-22T01:17:15.695Z,1.10
2019-02-22T01:19:44.891Z,1.10
2019-02-22T01:22:14.447Z,1.27
2019-02-22T01:24:43.726Z,1.20
2019-02-22T01:27:13.253Z,1.00
2019-02-22T01:29:42.410Z,1.40
2019-02-22T01:32:12.095Z,0.87
2019-02-22T01:34:41.340Z,1.30
2019-02-22T01:37:10.476Z,1.17
2019-02-22T01:39:39.621Z,1.40
2019-02-22T01:42:09.173Z,0.93
2019-02-22T01:44:38.800Z,1.60
2019-02-22T01:47:08.613Z,1.50
2019-02-22T01:49:38.426Z,1.20
2019-02-22T01:52:08.063Z,1.40
2019-02-22T01:54:37.338Z,1.50
2019-02-22T01:57:06.434Z,1.50
2019-02-22T01:59:35.634Z,1.30
2019-02-22T02:02:05.179Z,1.50
2019-02-22T02:04:34.575Z,1.30
2019-02-22T02:07:04.243Z,1.33
2019-02-22T02:09:33.398Z,1.73
2019-02-22T02:12:02.515Z,1.30
2019-02-22T02:14:32.105Z,1.40
2019-02-22T02:17:01.784Z,1.30
2019-02-22T02:19:31.009Z,1.20
2019-02-22T02:22:01.323Z,1.60
2019-02-22T02:24:30.614Z,1.30
2019-02-22T02:26:59.750Z,1.43
2019-02-22T02:29:29.417Z,1.47
2019-02-22T02:31:59.371Z,1.30
2019-02-22T02:34:28.500Z,1.47
2019-02-22T02:36:58.166Z,1.30
2019-02-22T02:39:27.922Z,1.60
2019-02-22T02:41:57.680Z,1.60
2019-02-22T02:44:27.407Z,1.33
2019-02-22T02:46:57.094Z,1.60
2019-02-22T02:49:26.747Z,1.30
2019-02-22T02:51:56.422Z,1.37
2019-02-22T02:54:25.840Z,1.40
2019-02-22T02:56:55.036Z,0.97
2019-02-22T02:59:24.225Z,0.93
2019-02-22T03:01:53.419Z,1.10
2019-02-22T03:04:22.547Z,1.10
2019-02-22T03:07:03.065Z,0.90
2019-02-22T03:09:32.308Z,1.20
2019-02-22T03:12:01.579Z,1.17
2019-02-22T03:14:30.862Z,0.80
2019-02-22T03:17:00.074Z,1.00
2019-02-22T03:19:29.273Z,1.10
2019-02-22T03:21:58.503Z,1.20
2019-02-22T03:24:27.667Z,1.40
2019-02-22T03:26:56.853Z,1.13
2019-02-22T03:29:26.040Z,1.10
2019-02-22T03:31:55.216Z,1.13
2019-02-22T03:34:24.372Z,1.17
2019-02-22T03:36:53.934Z,1.53
2019-02-22T03:39:23.551Z,1.03
2019-02-22T03:41:53.183Z,1.27
2019-02-22T03:44:22.852Z,1.20
2019-02-22T03:46:52.077Z,1.00
2019-02-22T03:49:21.255Z,1.27
2019-02-22T03:51:50.987Z,1.50
2019-02-22T03:54:20.368Z,1.03
2019-02-22T03:56:49.583Z,1.73
2019-02-22T03:59:18.864Z,1.47
2019-02-22T04:01:48.027Z,1.27
2019-02-22T04:04:17.859Z,1.30
2019-02-22T04:06:47.115Z,1.27
2019-02-22T04:09:16.667Z,1.27
2019-02-22T04:11:46.524Z,1.20
2019-02-22T04:14:15.791Z,1.30
2019-02-22T04:16:44.944Z,1.40
2019-02-22T04:19:14.760Z,1.40
2019-02-22T04:21:44.695Z,1.43
2019-02-22T04:24:13.899Z,1.40
2019-02-22T04:26:43.478Z,1.60
2019-02-22T04:29:13.165Z,1.30
2019-02-22T04:31:42.403Z,1.50
2019-02-22T04:34:12.005Z,1.27
2019-02-22T04:36:41.676Z,1.60
2019-02-22T04:39:11.436Z,1.60
2019-02-22T04:41:41.216Z,1.10
2019-02-22T04:44:10.428Z,1.10
2019-02-22T04:46:40.240Z,1.60
2019-02-22T04:49:09.890Z,1.40
2019-02-22T04:51:39.217Z,1.33
2019-02-22T04:54:08.448Z,1.07
2019-02-22T04:56:37.592Z,1.20
2019-02-22T04:59:07.206Z,1.40
2019-02-22T05:01:36.415Z,1.50
2019-02-22T05:04:06.022Z,1.23
2019-02-22T05:06:35.653Z,1.60
2019-02-22T05:09:05.224Z,1.57
2019-02-22T05:11:34.993Z,1.00
2019-02-22T05:14:04.592Z,1.50
2019-02-22T05:16:33.795Z,1.30
2019-02-22T05:19:03.390Z,1.30
2019-02-22T05:21:33.190Z,1.43
2019-02-22T05:24:02.892Z,1.10
2019-02-22T05:26:32.356Z,1.20
2019-02-22T05:29:01.937Z,1.50
2019-02-22T05:31:31.242Z,1.70
2019-02-22T05:34:00.386Z,1.60
2019-02-22T05:36:29.711Z,1.67
2019-02-22T05:38:59.316Z,1.57
2019-02-22T05:41:28.936Z,1.93
2019-02-22T05:43:58.144Z,1.50
2019-02-22T05:46:28.892Z,2.00
2019-02-22T05:48:58.527Z,1.60
2019-02-22T05:51:28.158Z,1.23
2019-02-22T05:53:57.368Z,2.00
2019-02-22T05:56:26.508Z,1.60
2019-02-22T05:58:55.661Z,2.00
2019-02-22T06:01:25.243Z,1.80
2019-02-22T06:03:54.467Z,1.40
2019-02-22T06:06:24.087Z,1.70
2019-02-22T06:08:53.744Z,1.67
2019-02-22T06:11:23.633Z,1.60
2019-02-22T06:13:53.468Z,1.70
2019-02-22T06:16:23.230Z,1.50
2019-02-22T06:18:52.867Z,1.77
2019-02-22T06:21:22.635Z,1.60
2019-02-22T06:23:51.834Z,1.80
2019-02-22T06:26:21.454Z,1.67
2019-02-22T06:28:51.110Z,1.70
2019-02-22T06:31:20.472Z,1.83
2019-02-22T06:33:49.594Z,1.87
2019-02-22T06:36:19.139Z,1.60
2019-02-22T06:38:48.866Z,1.63
2019-02-22T06:41:18.557Z,2.00
2019-02-22T06:43:48.250Z,1.73
2019-02-22T06:46:17.867Z,1.83
2019-02-22T06:48:47.493Z,1.97
2019-02-22T06:51:16.691Z,1.70
2019-02-22T06:53:45.811Z,1.60
2019-02-22T06:56:15.473Z,1.50
2019-02-22T06:58:45.327Z,1.53
2019-02-22T07:01:15.091Z,1.60
2019-02-22T07:03:44.336Z,1.60
2019-02-22T07:06:13.909Z,1.60
2019-02-22T07:08:43.240Z,1.60
2019-02-22T07:11:20.111Z,1.80
2019-02-22T07:14:10.326Z,1.57
2019-02-22T07:20:14.678Z,1.97
2019-02-22T07:24:18.712Z,1.80
2019-02-22T07:27:07.833Z,1.57
2019-02-22T07:29:42.876Z,1.77
2019-02-22T07:32:12.363Z,1.27
2019-02-22T07:35:30.275Z,1.30
2019-02-22T07:41:38.566Z,1.67
2019-02-22T07:44:07.834Z,1.70
2019-02-22T07:46:36.930Z,1.40
2019-02-22T07:49:06.146Z,1.40
2019-02-22T07:51:35.291Z,1.67
2019-02-22T07:54:10.583Z,1.53
2019-02-22T07:56:39.846Z,1.90
2019-02-22T07:59:09.003Z,1.70
2019-02-22T08:01:46.949Z,1.70
2019-02-22T08:04:09.685Z,1.40
2019-02-22T08:06:39.297Z,1.70
2019-02-22T08:09:08.936Z,1.60
2019-02-22T08:11:38.689Z,1.70
2019-02-22T08:14:09.379Z,1.47
2019-02-22T08:16:41.475Z,1.63
2019-02-22T08:19:11.403Z,1.50
2019-02-22T08:21:41.124Z,1.67
2019-02-22T08:24:10.416Z,1.60
2019-02-22T08:26:39.679Z,1.60
2019-02-22T08:29:09.240Z,1.60
2019-02-22T08:31:38.611Z,1.60
2019-02-22T08:34:08.727Z,1.77
2019-02-22T08:36:37.945Z,1.70
2019-02-22T08:39:07.182Z,1.53
2019-02-22T08:41:36.820Z,1.50
2019-02-22T08:44:06.565Z,1.90
2019-02-22T08:46:36.372Z,1.60
2019-02-22T08:49:06.067Z,1.60
2019-02-22T08:51:35.691Z,1.80
2019-02-22T08:54:05.436Z,1.70
2019-02-22T08:56:35.158Z,2.00
2019-02-22T08:59:04.418Z,1.73
2019-02-22T09:01:35.773Z,1.70
2019-02-22T09:04:05.500Z,1.60
2019-02-22T09:06:34.798Z,1.70
2019-02-22T09:09:05.571Z,1.50
2019-02-22T09:11:36.490Z,1.73
2019-02-22T09:14:06.190Z,1.40
2019-02-22T09:16:35.551Z,1.70
2019-02-22T09:19:05.261Z,1.80
2019-02-22T09:21:36.044Z,1.70
2019-02-22T09:24:05.698Z,1.70
2019-02-22T09:26:35.345Z,1.70
2019-02-22T09:29:04.974Z,1.67
2019-02-22T09:31:34.233Z,1.43
2019-02-22T09:34:03.371Z,1.60
2019-02-22T09:36:32.589Z,1.47
2019-02-22T09:39:02.104Z,1.80
2019-02-22T09:41:33.370Z,1.50
2019-02-22T09:44:03.054Z,1.70
2019-02-22T09:46:32.732Z,1.57
2019-02-22T09:49:03.667Z,1.50
2019-02-22T09:51:33.396Z,1.50
2019-02-22T09:54:03.132Z,1.57
2019-02-22T09:56:34.810Z,1.80
2019-02-22T09:59:04.143Z,1.33
2019-02-22T10:01:33.724Z,1.63
2019-02-22T10:04:03.431Z,1.73
2019-02-22T10:06:33.158Z,1.63
2019-02-22T10:09:04.059Z,1.60
2019-02-22T10:11:35.630Z,1.90
2019-02-22T10:14:06.941Z,1.60
2019-02-22T10:16:37.537Z,1.53
2019-02-22T10:19:07.158Z,1.57
2019-02-22T10:21:36.354Z,1.30
2019-02-22T10:24:05.529Z,1.33
2019-02-22T10:26:34.636Z,1.30
2019-02-22T10:29:04.171Z,1.23
2019-02-22T10:31:33.389Z,1.30
2019-02-22T10:34:03.005Z,1.13
2019-02-22T10:36:32.239Z,1.83
2019-02-22T10:39:01.582Z,1.47
2019-02-22T10:41:32.365Z,1.33
2019-02-22T10:44:01.909Z,1.33
2019-02-22T10:46:31.194Z,1.47
2019-02-22T10:49:00.333Z,1.40
2019-02-22T10:51:29.869Z,1.10
2019-02-22T10:54:00.055Z,1.10
2019-02-22T10:56:30.177Z,1.00
2019-02-22T10:58:59.798Z,1.30
2019-02-22T11:01:29.007Z,1.00
2019-02-22T11:04:11.191Z,1.00
2019-02-22T11:06:46.180Z,1.40
2019-02-22T11:12:40.576Z,0.90
2019-02-22T11:15:12.440Z,1.17
2019-02-22T11:17:42.250Z,1.10
2019-02-22T11:20:11.620Z,1.10
2019-02-22T11:22:40.775Z,1.10
2019-02-22T11:25:10.693Z,1.10
2019-02-22T11:27:39.813Z,0.90
2019-02-22T11:30:09.973Z,1.03
2019-02-22T11:32:39.070Z,1.00
2019-02-22T11:35:08.237Z,1.10
2019-02-22T11:37:37.450Z,1.17
2019-02-22T11:40:06.664Z,1.20
2019-02-22T11:42:37.372Z,1.40
2019-02-22T11:45:07.258Z,1.00
2019-02-22T11:47:36.878Z,1.40
2019-02-22T11:50:07.353Z,1.27
2019-02-22T11:52:37.291Z,1.47
2019-02-22T11:55:07.297Z,1.27
2019-02-22T11:57:37.187Z,1.27
2019-02-22T12:00:08.935Z,1.30
2019-02-22T12:02:38.248Z,1.10
2019-02-22T12:05:10.760Z,1.50
2019-02-22T12:07:40.491Z,1.10
2019-02-22T12:10:10.741Z,1.40
2019-02-22T12:12:40.526Z,0.80
2019-02-22T12:15:10.424Z,1.10
2019-02-22T12:17:39.974Z,1.00
2019-02-22T12:20:09.853Z,1.03
2019-02-22T12:22:39.163Z,1.03
2019-02-22T12:25:08.358Z,0.93
2019-02-22T12:27:39.054Z,1.27
2019-02-22T12:30:09.314Z,1.00
2019-02-22T12:32:39.544Z,1.30
2019-02-22T12:35:08.926Z,1.03
2019-02-22T12:37:38.248Z,1.07
2019-02-22T12:40:08.058Z,0.90
2019-02-22T12:42:37.372Z,1.20
2019-02-22T12:45:06.554Z,1.20
2019-02-22T12:47:35.726Z,0.90
2019-02-22T12:50:05.027Z,1.10
2019-02-22T12:52:34.347Z,1.00
2019-02-22T12:55:03.568Z,1.10
2019-02-22T12:57:32.764Z,1.07
2019-02-22T13:00:01.915Z,1.00
2019-02-22T13:02:32.186Z,0.90
2019-02-22T13:05:01.538Z,0.90
2019-02-22T13:07:30.651Z,0.90
2019-02-22T13:09:59.942Z,0.83
2019-02-22T13:12:29.154Z,0.80
2019-02-22T13:14:58.800Z,1.00
2019-02-22T13:17:30.767Z,0.93
2019-02-22T13:19:59.001Z,1.10
2019-02-22T13:22:28.198Z,0.80
2019-02-22T13:24:58.375Z,0.70
2019-02-22T13:27:27.605Z,1.00
2019-02-22T13:29:56.779Z,1.00
2019-02-22T13:32:25.906Z,1.03
2019-02-22T13:34:55.472Z,0.97
2019-02-22T13:37:25.494Z,1.10
2019-02-22T13:39:55.092Z,1.00
2019-02-22T13:42:24.971Z,0.90
2019-02-22T13:45:26.660Z,1.03
2019-02-22T13:47:51.996Z,1.07
2019-02-22T13:50:21.392Z,1.20
2019-02-22T13:55:37.854Z,0.80
2019-02-22T13:58:07.387Z,1.00
2019-02-22T14:00:37.005Z,1.10
2019-02-22T14:03:06.189Z,1.30
2019-02-22T14:05:35.308Z,1.30
2019-02-22T14:08:04.397Z,1.23
2019-02-22T14:10:33.544Z,1.40
2019-02-22T14:13:02.630Z,1.20
2019-02-22T14:15:37.917Z,1.40
2019-02-22T14:18:02.726Z,1.17
2019-02-22T14:20:33.469Z,1.10
2019-02-22T14:23:03.640Z,1.40
2019-02-22T14:25:33.245Z,1.30
2019-02-22T14:28:02.371Z,1.47
2019-02-22T14:30:32.041Z,1.40
2019-02-22T14:33:01.644Z,1.43
2019-02-22T14:35:31.021Z,1.27
2019-02-22T14:38:00.354Z,1.30
2019-02-22T14:40:30.003Z,1.70
2019-02-22T14:42:59.677Z,1.73
2019-02-22T14:45:28.878Z,1.20
2019-02-22T14:47:58.098Z,1.40
2019-02-22T14:50:27.642Z,1.37
2019-02-22T14:52:56.851Z,1.60
2019-02-22T14:55:25.990Z,1.53
2019-02-22T14:57:55.531Z,1.40
2019-02-22T15:00:24.779Z,1.70
2019-02-22T15:02:54.402Z,1.50
2019-02-22T15:05:24.112Z,1.83
2019-02-22T15:07:53.379Z,1.80
2019-02-22T15:10:22.914Z,1.60
2019-02-22T15:12:52.505Z,1.93
2019-02-22T15:15:25.064Z,1.67
2019-02-22T15:17:57.708Z,1.70
2019-02-22T15:20:26.890Z,1.80
2019-02-22T15:22:56.465Z,1.87
2019-02-22T15:25:25.781Z,1.87
2019-02-22T15:27:54.978Z,1.90
2019-02-22T15:30:24.241Z,1.50
2019-02-22T15:32:53.683Z,1.80
2019-02-22T15:35:23.288Z,1.47
2019-02-22T15:37:52.572Z,1.70
2019-02-22T15:40:23.354Z,2.00
2019-02-22T15:42:53.094Z,2.13
2019-02-22T15:45:22.380Z,1.60
2019-02-22T15:47:51.995Z,1.70
2019-02-22T15:50:21.712Z,2.00
2019-02-22T15:52:51.377Z,1.73
2019-02-22T15:55:21.018Z,1.53
2019-02-22T15:57:50.227Z,2.10
2019-02-22T16:00:23.032Z,1.90
2019-02-22T16:02:52.434Z,1.87
2019-02-22T16:05:25.526Z,1.70
2019-02-22T16:07:55.195Z,1.63
2019-02-22T16:10:24.906Z,1.80
2019-02-22T16:12:54.732Z,1.80
2019-02-22T16:15:24.494Z,1.60
2019-02-22T16:17:54.127Z,1.90
2019-02-22T16:20:23.459Z,1.90
2019-02-22T16:22:52.599Z,2.20
2019-02-22T16:25:21.709Z,1.80
2019-02-22T16:27:51.271Z,2.10
2019-02-22T16:30:22.007Z,1.83
2019-02-22T16:32:51.100Z,1.87
2019-02-22T16:35:20.298Z,2.10
2019-02-22T16:37:49.903Z,1.83
2019-02-22T16:40:19.816Z,1.97
2019-02-22T16:42:49.578Z,1.50
2019-02-22T16:45:19.282Z,1.43
2019-02-22T16:47:48.915Z,2.27
2019-02-22T16:50:19.927Z,2.00
2019-02-22T16:52:49.902Z,1.80
2019-02-22T16:55:26.144Z,1.80
2019-02-22T16:58:33.663Z,2.00
2019-02-22T17:00:42.096Z,1.60
2019-02-22T17:03:11.372Z,1.70
2019-02-22T17:05:40.807Z,1.80
2019-02-22T17:08:10.447Z,1.70
2019-02-22T17:10:39.736Z,2.00
2019-02-22T17:13:09.592Z,1.83
2019-02-22T17:15:38.880Z,1.90
2019-02-22T17:18:11.522Z,2.00
2019-02-22T17:20:40.850Z,2.47
2019-02-22T17:23:13.643Z,2.60
2019-02-22T17:25:43.337Z,2.53
2019-02-22T17:28:13.225Z,3.87
2019-02-22T17:30:42.930Z,3.00
2019-02-22T17:33:12.813Z,2.50
2019-02-22T17:35:42.524Z,2.70
2019-02-22T17:38:12.191Z,2.70
2019-02-22T17:40:41.397Z,3.00
2019-02-22T17:43:42.632Z,2.57
2019-02-22T17:46:13.947Z,3.50
2019-02-22T17:48:43.146Z,3.23
2019-02-22T17:51:12.291Z,4.20
2019-02-22T17:53:41.569Z,4.10
2019-02-22T17:56:10.787Z,3.40
2019-02-22T17:58:39.946Z,2.90
2019-02-22T18:01:09.259Z,2.70
2019-02-22T18:03:38.561Z,2.50
2019-02-22T18:06:08.570Z,2.90
2019-02-22T18:08:38.388Z,2.60
2019-02-22T18:11:08.299Z,2.77
2019-02-22T18:13:39.000Z,2.80
2019-02-22T18:16:08.942Z,3.83
2019-02-22T18:18:39.474Z,3.40
2019-02-22T18:21:09.615Z,2.53
2019-02-22T18:23:38.943Z,2.53
2019-02-22T18:26:08.407Z,2.60
2019-02-22T18:28:38.699Z,2.70
2019-02-22T18:31:08.276Z,2.70
2019-02-22T18:34:29.395Z,3.53
2019-02-22T18:36:58.698Z,2.70
2019-02-22T18:39:34.868Z,2.73
2019-02-22T18:42:20.288Z,2.83
2019-02-22T18:45:22.848Z,2.73
2019-02-22T18:47:36.953Z,3.10
2019-02-22T18:50:07.688Z,3.03
2019-02-22T18:52:37.278Z,3.53
2019-02-22T18:55:06.860Z,3.47
2019-02-22T18:57:35.998Z,3.20
2019-02-22T19:00:07.749Z,4.40
2019-02-22T19:02:37.478Z,3.43
2019-02-22T19:05:07.335Z,3.40
2019-02-22T19:07:36.596Z,3.03
2019-02-22T19:10:06.688Z,3.77
2019-02-22T19:12:36.343Z,3.17
2019-02-22T19:15:07.048Z,2.90
2019-02-22T19:17:36.802Z,2.87
2019-02-22T19:20:08.408Z,2.97
2019-02-22T19:22:38.325Z,2.50
2019-02-22T19:25:07.810Z,3.03
2019-02-22T19:27:37.613Z,3.17
2019-02-22T19:30:08.507Z,3.47
2019-02-22T19:32:38.173Z,3.77
2019-02-22T19:35:07.507Z,4.33
2019-02-22T19:37:36.706Z,3.80
2019-02-22T19:40:09.531Z,3.37
2019-02-22T19:42:39.239Z,3.60
2019-02-22T19:45:08.731Z,3.60
2019-02-22T19:47:41.801Z,3.37
2019-02-22T19:50:10.468Z,3.37
2019-02-22T19:52:40.066Z,3.10
2019-02-22T19:55:11.628Z,3.00
2019-02-22T19:57:41.410Z,3.10
2019-02-22T20:00:13.976Z,2.70
2019-02-22T20:02:43.199Z,3.00
2019-02-22T20:05:12.427Z,3.20
2019-02-22T20:07:42.274Z,3.30
2019-02-22T20:10:17.992Z,3.10
2019-02-22T20:12:44.336Z,3.10
2019-02-22T20:15:15.076Z,3.67
2019-02-22T20:17:53.034Z,3.47
2019-02-22T20:20:15.892Z,3.10
2019-02-22T20:22:45.064Z,3.07
2019-02-22T20:25:14.312Z,3.43
2019-02-22T20:27:44.071Z,3.37
2019-02-22T20:30:14.969Z,3.40
2019-02-22T20:32:44.444Z,2.97
2019-02-22T20:35:14.800Z,2.87
2019-02-22T20:37:51.889Z,3.43
2019-02-22T20:40:15.566Z,3.27
2019-02-22T20:42:46.433Z,3.67
2019-02-22T20:45:15.801Z,2.63
2019-02-22T20:47:45.095Z,3.00
2019-02-22T20:50:14.897Z,3.20
2019-02-22T20:52:44.652Z,3.10
2019-02-22T20:55:14.281Z,2.90
2019-02-22T20:57:43.906Z,3.10
2019-02-22T21:00:16.729Z,2.93
2019-02-22T21:02:46.109Z,2.80
2019-02-22T21:05:15.739Z,2.50
2019-02-22T21:07:45.407Z,2.90
2019-02-22T21:10:15.992Z,2.50
2019-02-22T21:12:45.643Z,2.63
2019-02-22T21:15:15.660Z,2.50
2019-02-22T21:17:44.895Z,2.93
2019-02-22T21:20:18.128Z,2.77
2019-02-22T21:22:48.075Z,2.60
2019-02-22T21:25:17.494Z,2.40
2019-02-22T21:27:48.507Z,2.50
2019-02-22T21:30:17.895Z,2.53
2019-02-22T21:32:47.380Z,2.67
2019-02-22T21:35:16.727Z,2.60
2019-02-22T21:37:46.400Z,2.67
2019-02-22T21:40:15.948Z,2.50
2019-02-22T21:43:07.770Z,2.80
2019-02-22T21:45:37.026Z,2.87
2019-02-22T21:48:06.881Z,2.97
2019-02-22T21:50:38.125Z,2.73
2019-02-22T21:53:08.813Z,2.90
2019-02-22T21:55:38.652Z,3.00
2019-02-22T21:58:08.619Z,3.17
2019-02-22T22:00:41.533Z,3.30
2019-02-22T22:03:11.686Z,3.30
2019-02-22T22:05:41.512Z,3.53
2019-02-22T22:08:15.472Z,3.50
2019-02-22T22:10:45.583Z,3.50
2019-02-22T22:13:15.637Z,3.20
2019-02-22T22:15:46.032Z,3.07
2019-02-22T22:18:15.997Z,3.57
2019-02-22T22:20:46.265Z,3.50
2019-02-22T22:23:16.475Z,3.70
2019-02-22T22:25:47.193Z,3.40
2019-02-22T22:28:17.032Z,3.97
2019-02-22T22:30:46.993Z,3.40
2019-02-22T22:33:18.709Z,3.57
2019-02-22T22:36:03.392Z,3.80
2019-02-22T22:38:51.139Z,3.60
2019-02-22T22:41:21.711Z,3.63
2019-02-22T22:44:01.193Z,3.30
2019-02-22T22:46:37.155Z,3.10
2019-02-22T22:49:05.980Z,3.50
2019-02-22T22:51:42.433Z,3.50
2019-02-22T22:54:12.557Z,3.37
2019-02-22T22:56:42.486Z,3.90
2019-02-22T22:59:12.531Z,3.30
2019-02-22T23:01:42.751Z,3.20
2019-02-22T23:04:12.754Z,4.07
2019-02-22T23:06:43.631Z,3.33
2019-02-22T23:09:23.348Z,4.03
2019-02-22T23:11:53.836Z,3.43
2019-02-22T23:14:24.870Z,3.90
2019-02-22T23:16:55.297Z,3.97
2019-02-22T23:19:25.007Z,4.43
2019-02-22T23:22:01.915Z,3.50
2019-02-22T23:24:31.803Z,3.53
2019-02-22T23:27:01.273Z,5.20
2019-02-22T23:29:30.864Z,3.97
2019-02-22T23:32:00.672Z,4.40
2019-02-22T23:34:30.497Z,4.00
2019-02-22T23:37:00.459Z,4.07
2019-02-22T23:39:30.575Z,3.90
2019-02-22T23:42:00.086Z,3.87
2019-02-22T23:44:29.829Z,4.07
2019-02-22T23:46:59.750Z,4.10
2019-02-22T23:49:29.187Z,3.93
2019-02-22T23:51:58.865Z,4.13
2019-02-22T23:54:28.267Z,4.60
2019-02-22T23:56:58.339Z,4.30
2019-02-22T23:59:28.399Z,3.90
